Main page
METAR-TAF:

METAR-TAF

Airports :

Carcassonne, France

Carcassonne Airport

latitude: 43-13N, longitude: 002-19E, elevation: 130 m

Current weather observation

The report was made 16 minutes ago, at 03:30 UTC
Wind 8 kt from the West
Temperature 11°C
Humidity 76%
Pressure 1023 hPa
Visibility 10 km or more
no clouds below 1500 m and no cumulonimbus

METAR: LFMK 200330Z AUTO 27008KT CAVOK 11/07 Q1023 NOSIG

Time: 05:46 (03:46 UTC)

Forecast

The report was made 1 hour and 46 minutes ago, at 02:00 UTC
Forecast valid from 20 at 03 UTC to 21 at 03 UTC
Wind 10 kt from the West
Visibility 10 km or more
no clouds below 1500 m and no cumulonimbus
Becoming
from 20 at 19 UTC to 20 at 22 UTC
Wind 3 kt from variable directions

TAF: LFMK 200200Z 2003/2103 27010KT CAVOK BECMG 2019/2022 VRB03KT

Weather observations and forecasts of more than 4000 airports (METAR and TAF reports).

The available stations are represented by yellow and red dots on the map.

Hover mouse over dot to see the name of the station.

Then click to see weather observations and forecasts.

To change the map : click on the green buttons with a black cross to zoom in, on the green button with a dash to zoom out, or on the green arrows for adjacent maps.


METAR-TAF: